Latest Weather Observations for Mortlake

IDV60801

Issued at 8:35 am EST Wednesday 30 July 2014 (issued every 30 minutes, with the page automatically refreshed every 10 minutes)

About weather observations | Map of weather stations | Latest weather observations for VIC | Other Formats
Station Details ID: 090176 Name: MORTLAKE RACECOURSE Lat: -38.07 Lon: 142.77 Height: 130.0 m
Data from the previous 72 hours. | See also: Recent months at Mortlake
Date/Time
EST
Temp
°C
App
Temp
°C
Dew
Point
Rel
Hum
%
Delta-T
°C
Wind Press
QNH
hPa
Press
MSL
hPa
Rain
since 9 am
mm
Dir
 
Spd
km/h
Gust
km/h
Spd
kts
Gust
kts
30/08:30am 11.9 7.8 11.4 97 0.3 NW 24 37 13 20 1011.2 - 4.2
30/08:00am 11.7 7.6 11.4 98 0.2 NW 24 32 13 17 1011.0 1011.2 4.2
30/07:30am 10.7 7.1 10.5 99 0.1 NNW 20 28 11 15 1010.6 - 4.2
30/07:00am 10.2 6.7 10.1 99 0.1 NNW 19 24 10 13 1010.5 1010.7 4.2
30/06:30am 10.5 7.0 10.2 98 0.2 NNW 19 24 10 13 1010.5 - 4.2
30/06:00am 10.9 7.2 10.3 96 0.3 NW 20 30 11 16 1010.5 1010.7 4.2
30/05:30am 11.2 7.6 10.7 97 0.3 NW 20 28 11 15 1010.7 - 4.2
30/05:00am 10.9 7.3 10.4 97 0.3 NW 20 30 11 16 1010.7 1010.9 4.2
30/04:30am 11.0 8.0 10.8 99 0.1 NW 17 22 9 12 1010.5 - 4.2
30/04:00am 10.3 7.5 10.1 99 0.1 NW 15 20 8 11 1010.6 1010.8 4.2
30/03:30am 10.3 7.9 10.1 99 0.1 NW 13 20 7 11 1011.0 - 4.2
30/03:00am 11.1 7.6 10.8 98 0.2 WNW 20 30 11 16 1011.1 1011.3 4.2
30/02:30am 11.3 8.1 11.1 99 0.1 WNW 19 26 10 14 1011.2 - 4.2
30/02:00am 11.4 7.6 11.2 99 0.1 WNW 22 30 12 16 1011.0 1011.2 4.2
30/01:30am 12.1 8.1 11.9 99 0.1 WNW 24 33 13 18 1010.9 - 4.0
30/01:00am 12.2 9.0 12.0 99 0.1 NW 20 28 11 15 1010.6 1010.8 3.4
30/12:30am 12.2 9.6 12.0 99 0.1 WNW 17 26 9 14 1010.6 - 3.0
30/12:00am 12.3 8.4 12.1 99 0.1 WNW 24 33 13 18 1010.4 1010.6 2.8
 
Date/Time
EST
Temp
°C
App
Temp
°C
Dew
Point
Rel
Hum
%
Delta-T
°C
Wind Press
QNH
hPa
Press
MSL
hPa
Rain
since 9 am
mm
Dir
 
Spd
km/h
Gust
km/h
Spd
kts
Gust
kts
29/11:30pm 12.2 10.0 12.0 99 0.1 NW 15 20 8 11 1010.3 - 1.6
29/11:00pm 12.4 8.3 11.6 95 0.4 WNW 24 32 13 17 1010.3 1010.5 1.6
29/10:30pm 12.6 8.3 12.0 96 0.3 WNW 26 37 14 20 1010.1 - 1.6
29/10:00pm 12.7 7.9 11.6 93 0.6 WNW 28 39 15 21 1010.0 1010.2 1.4
29/09:30pm 12.4 9.3 12.2 99 0.1 NW 20 35 11 19 1009.8 - 1.4
29/09:00pm 12.3 10.1 12.1 99 0.1 WNW 15 20 8 11 1009.7 1009.9 1.4
29/08:30pm 12.4 8.1 12.2 99 0.1 WNW 26 35 14 19 1009.3 - 1.2
29/08:00pm 12.6 8.0 12.3 98 0.2 WNW 28 44 15 24 1009.1 1009.3 0.6
29/07:30pm 13.2 7.1 11.9 92 0.7 WNW 35 52 19 28 1008.6 - 0.6
29/07:00pm 14.2 8.0 11.5 84 1.5 WNW 35 50 19 27 1008.2 1008.4 0.6
29/06:30pm 13.9 8.0 11.1 83 1.5 WNW 33 46 18 25 1007.9 - 0.6
29/06:00pm 14.3 8.5 10.9 80 1.8 WNW 32 43 17 23 1007.4 1007.6 0.6
29/05:34pm 14.1 8.8 11.4 84 1.4 WNW 30 50 16 27 1007.1 - 0.6
29/05:30pm 14.0 8.8 11.5 85 1.3 WNW 30 41 16 22 1007.0 - 0.6
29/05:00pm 14.8 7.8 11.4 80 1.8 WNW 39 61 21 33 1006.9 1007.1 0.6
29/04:30pm 15.1 8.2 11.5 79 1.9 WNW 39 57 21 31 1006.5 - 0.6
29/04:00pm 14.8 8.9 12.5 86 1.3 WNW 35 50 19 27 1006.3 1006.5 0.6
29/03:43pm 14.3 9.5 12.9 91 0.8 WNW 30 48 16 26 1006.3 - 0.6
29/03:30pm 14.5 8.2 12.4 87 1.2 WNW 37 52 20 28 1006.4 - 0.6
29/03:00pm 15.0 7.5 12.0 82 1.6 WNW 43 63 23 34 1006.0 1006.2 0.6
29/02:36pm 14.4 6.5 12.6 89 1.0 WNW 46 69 25 37 1006.1 - 0.6
29/02:30pm 14.3 5.5 12.2 87 1.1 WNW 50 67 27 36 1005.9 - 0.6
29/02:00pm 15.1 9.1 12.2 83 1.6 NW 35 54 19 29 1005.4 1005.6 0.6
29/01:30pm 14.6 8.9 13.1 91 0.8 WNW 35 59 19 32 1005.7 - 0.6
29/01:24pm 14.2 8.1 13.1 93 0.6 WNW 37 59 20 32 1005.7 - 0.6
29/01:00pm 13.9 7.1 12.1 89 1.0 NW 39 52 21 28 1005.7 1006.0 0.0
29/12:30pm 14.4 6.7 12.1 86 1.3 NW 44 57 24 31 1006.1 - 0.0
29/12:10pm 13.9 7.1 11.8 87 1.1 NW 39 59 21 32 1006.3 - 0.0
29/12:00pm 14.2 7.4 12.1 87 1.1 NW 39 50 21 27 1006.5 1006.7 0.0
29/11:30am 13.3 6.5 11.9 91 0.8 NNW 39 54 21 29 1006.9 - 0.0
29/11:18am 13.5 6.6 11.6 88 1.0 NNW 39 59 21 32 1007.2 - 0.0
29/11:00am 13.2 7.0 11.4 89 1.0 NW 35 52 19 28 1007.4 1007.6 0.0
29/10:30am 12.9 5.4 10.8 87 1.1 NNW 41 56 22 30 1007.1 - 0.0
29/10:11am 13.0 5.9 10.9 87 1.1 NNW 39 61 21 33 1006.9 - 0.0
29/10:00am 13.3 6.2 10.8 85 1.3 NNW 39 52 21 28 1007.1 1007.3 0.0
29/09:30am 12.5 5.3 10.6 88 1.0 NW 39 54 21 29 1007.2 - 0.0
29/09:00am 12.5 5.2 10.2 86 1.2 NNW 39 52 21 28 1006.8 1007.0 0.0
29/08:30am 12.2 5.2 9.9 86 1.2 NNW 37 46 20 25 1007.1 - 0.0
29/08:00am 11.8 5.2 9.9 88 1.0 NNW 35 48 19 26 1007.5 1007.7 0.0
29/07:30am 11.8 5.1 9.7 87 1.1 NNW 35 52 19 28 1007.5 - 0.0
29/07:00am 11.8 5.1 9.5 86 1.2 NW 35 48 19 26 1007.4 1007.6 0.0
29/06:30am 12.0 4.9 9.4 84 1.3 NNW 37 48 20 26 1007.2 - 0.0
29/06:00am 11.9 4.7 9.3 84 1.3 NNW 37 50 20 27 1006.9 1007.1 0.0
29/05:46am 11.9 5.5 9.3 84 1.3 NNW 33 52 18 28 1006.8 - 0.0
29/05:30am 11.7 5.9 9.3 85 1.2 NNW 30 44 16 24 1006.9 - 0.0
29/05:00am 11.7 5.3 9.3 85 1.2 NNW 33 46 18 25 1007.2 1007.4 0.0
29/04:30am 11.3 5.1 9.2 87 1.1 NNW 32 46 17 25 1007.5 - 0.0
29/04:00am 11.6 5.2 9.3 86 1.2 NNW 33 50 18 27 1007.1 1007.3 0.0
29/03:30am 11.9 4.7 9.3 84 1.3 NNW 37 54 20 29 1007.4 - 0.0
29/03:00am 12.0 5.2 9.2 83 1.4 NNW 35 50 19 27 1007.8 1008.0 0.0
29/02:30am 11.6 4.7 9.0 84 1.3 NNW 35 46 19 25 1007.9 - 0.0
29/02:02am 11.8 5.4 9.2 84 1.3 NNW 33 52 18 28 1008.3 - 0.0
29/02:00am 11.8 5.0 9.2 84 1.3 NNW 35 52 19 28 1008.4 1008.6 0.0
29/01:30am 12.1 5.3 9.3 83 1.4 NNW 35 46 19 25 1008.7 - 0.0
29/01:00am 12.0 5.1 9.0 82 1.5 NNW 35 48 19 26 1008.9 1009.1 0.0
29/12:30am 12.0 5.1 9.0 82 1.5 NNW 35 46 19 25 1009.4 - 0.0
29/12:00am 11.7 5.4 8.9 83 1.4 NNW 32 43 17 23 1010.0 1010.2 0.0
 
Date/Time
EST
Temp
°C
App
Temp
°C
Dew
Point
Rel
Hum
%
Delta-T
°C
Wind Press
QNH
hPa
Press
MSL
hPa
Rain
since 9 am
mm
Dir
 
Spd
km/h
Gust
km/h
Spd
kts
Gust
kts
28/11:30pm 11.8 5.8 8.6 81 1.6 NNW 30 41 16 22 1010.2 - 0.0
28/11:00pm 12.1 6.1 8.6 79 1.8 NNW 30 41 16 22 1010.4 1010.6 0.0
28/10:30pm 12.3 6.2 8.4 77 1.9 NNW 30 43 16 23 1011.2 - 0.0
28/10:00pm 12.1 6.0 8.2 77 1.9 NNW 30 44 16 24 1011.3 1011.5 0.0
28/09:30pm 11.8 5.7 8.1 78 1.8 NW 30 41 16 22 1011.4 - 0.0
28/09:00pm 9.6 5.8 7.4 86 1.1 NNW 17 22 9 12 1011.5 1011.7 0.0
28/08:30pm 9.6 5.8 7.4 86 1.1 NNW 17 20 9 11 1011.2 - 0.0
28/08:00pm 9.3 5.8 7.3 87 1.0 N 15 19 8 10 1011.2 1011.4 0.0
28/07:30pm 9.8 6.4 7.7 87 1.0 N 15 19 8 10 1011.2 - 0.0
28/07:00pm 11.1 7.4 8.1 82 1.5 NNW 17 20 9 11 1011.3 1011.5 0.0
28/06:30pm 11.1 7.8 8.1 82 1.5 NNW 15 19 8 10 1011.5 - 0.0
28/06:00pm 11.6 8.0 8.3 80 1.6 NNW 17 20 9 11 1011.1 1011.3 0.0
28/05:30pm 12.8 8.3 8.7 76 2.1 NW 22 28 12 15 1010.9 - 0.0
28/05:00pm 13.9 8.7 8.9 72 2.5 NW 26 35 14 19 1010.7 1010.9 0.0
28/04:30pm 14.8 8.6 9.2 69 2.9 NW 32 44 17 24 1010.6 - 0.0
28/04:00pm 15.3 8.8 9.0 66 3.2 NW 33 44 18 24 1010.7 1010.9 0.0
28/03:30pm 15.7 9.2 9.1 65 3.4 NW 33 44 18 24 1010.9 - 0.0
28/03:00pm 15.7 10.3 9.4 66 3.3 WNW 28 46 15 25 1011.6 1011.8 0.0
28/02:30pm 15.3 11.0 10.7 74 2.4 NW 24 37 13 20 1011.4 - 0.0
28/02:00pm 14.7 9.9 10.3 75 2.3 WNW 26 33 14 18 1012.1 1012.4 0.0
28/01:30pm 15.3 9.4 11.1 76 2.3 NW 33 48 18 26 1012.0 - 0.0
28/01:00pm 15.1 9.1 10.9 76 2.2 NW 33 44 18 24 1012.2 1012.5 0.0
28/12:30pm 14.7 8.2 10.5 76 2.2 NW 35 46 19 25 1012.7 - 0.0
28/12:00pm 14.9 9.2 11.3 79 1.9 WNW 32 43 17 23 1013.4 1013.7 0.0
28/11:30am 15.3 9.6 11.1 76 2.3 NW 32 43 17 23 1013.6 - 0.0
28/11:00am 14.3 9.7 11.1 81 1.7 NNW 26 33 14 18 1014.0 1014.2 0.0
28/10:30am 12.8 8.3 10.2 84 1.3 NNW 24 33 13 18 1014.2 - 0.0
28/10:00am 11.4 7.4 8.3 81 1.5 NNW 19 26 10 14 1014.4 1014.6 0.0
28/09:30am 10.1 6.2 7.3 83 1.3 N 17 22 9 12 1014.4 - 0.0
28/09:00am 9.1 5.1 6.5 84 1.2 N 17 24 9 13 1014.5 1014.7 0.2
28/08:30am 9.7 6.1 8.3 91 0.7 NNW 17 26 9 14 1014.5 - 0.2
28/08:00am 7.0 4.3 5.5 90 0.7 N 9 13 5 7 1014.6 1014.8 0.2
28/07:30am 6.3 2.7 4.9 91 0.6 N 13 17 7 9 1014.5 - 0.2
28/07:00am 7.6 4.2 5.7 88 0.9 N 13 17 7 9 1014.3 1014.5 0.2
28/06:30am 7.3 3.8 5.4 88 0.9 N 13 19 7 10 1014.5 - 0.2
28/06:00am 6.9 3.3 5.2 89 0.8 N 13 15 7 8 1014.5 1014.7 0.2
28/05:30am 6.7 3.5 5.0 89 0.8 N 11 15 6 8 1014.6 - 0.2
28/05:00am 6.0 3.1 4.6 91 0.6 N 9 11 5 6 1014.7 1014.9 0.2
28/04:30am 6.6 3.4 4.9 89 0.7 N 11 15 6 8 1014.8 - 0.2
28/04:00am 7.8 4.3 5.4 85 1.1 N 13 17 7 9 1014.8 1015.0 0.2
28/03:30am 8.6 5.2 5.9 83 1.2 N 13 17 7 9 1014.9 - 0.2
28/03:00am 8.1 4.3 5.7 85 1.1 N 15 22 8 12 1015.0 1015.2 0.2
28/02:30am 8.6 4.9 6.2 85 1.1 N 15 24 8 13 1015.2 - 0.2
28/02:00am 8.3 5.3 5.9 85 1.1 N 11 15 6 8 1015.7 1015.9 0.2
28/01:30am 9.4 5.3 6.3 81 1.4 N 17 22 9 12 1015.8 - 0.2
28/01:00am 9.8 4.8 6.5 80 1.5 N 22 30 12 16 1015.7 1015.9 0.2
28/12:30am 10.0 4.7 6.7 80 1.6 N 24 32 13 17 1015.7 - 0.2
28/12:00am 9.9 5.6 6.8 81 1.5 N 19 24 10 13 1016.4 1016.6 0.2
 
Date/Time
EST
Temp
°C
App
Temp
°C
Dew
Point
Rel
Hum
%
Delta-T
°C
Wind Press
QNH
hPa
Press
MSL
hPa
Rain
since 9 am
mm
Dir
 
Spd
km/h
Gust
km/h
Spd
kts
Gust
kts
27/11:30pm 10.0 5.5 6.9 81 1.5 N 20 28 11 15 1016.7 - 0.2
27/11:00pm 9.9 5.4 7.0 82 1.4 N 20 26 11 14 1017.0 1017.2 0.2
27/10:30pm 9.5 5.2 7.1 85 1.1 N 19 26 10 14 1017.0 - 0.2
27/10:00pm 9.1 5.2 6.9 86 1.0 N 17 20 9 11 1017.4 1017.6 0.2
27/09:30pm 9.4 4.9 7.0 85 1.1 N 20 26 11 14 1017.5 - 0.2
27/09:00pm 9.0 5.5 7.1 88 0.9 N 15 19 8 10 1017.8 1018.0 0.2
27/08:30pm 9.3 5.8 7.4 88 0.9 N 15 19 8 10 1018.0 - 0.2
27/08:00pm 9.3 5.8 7.4 88 0.9 N 15 19 8 10 1018.2 1018.4 0.2
27/07:30pm 9.1 6.1 7.5 90 0.8 N 13 15 7 8 1018.6 - 0.2
27/07:00pm 9.6 6.6 7.5 87 1.0 N 13 17 7 9 1018.7 1019.0 0.2
27/06:30pm 10.8 8.0 8.4 85 1.2 N 13 20 7 11 1018.5 - 0.2
27/06:00pm 10.8 8.0 8.4 85 1.2 N 13 17 7 9 1018.5 1018.8 0.2
27/05:30pm 12.1 9.8 8.9 81 1.6 N 11 17 6 9 1018.3 - 0.2
27/05:00pm 12.9 10.3 9.2 78 1.9 N 13 17 7 9 1018.2 1018.4 0.2
27/04:30pm 14.3 11.4 9.7 74 2.4 N 15 20 8 11 1018.3 - 0.2
27/04:00pm 14.2 9.8 9.0 71 2.7 NNW 22 33 12 18 1018.4 1018.6 0.2
27/03:30pm 15.1 10.8 9.5 69 2.9 NNW 22 28 12 15 1018.3 - 0.2
27/03:00pm 14.2 9.1 9.2 72 2.6 NNW 26 35 14 19 1018.4 1018.6 0.2
27/02:30pm 14.2 8.7 9.2 72 2.6 NNW 28 37 15 20 1018.7 - 0.0
27/02:00pm 14.5 9.0 9.1 70 2.8 NW 28 35 15 19 1018.9 1019.2 0.0
27/01:30pm 14.4 9.0 9.4 72 2.6 NW 28 35 15 19 1019.5 - 0.0
27/01:00pm 14.6 9.6 9.6 72 2.6 NW 26 33 14 18 1019.8 1020.1 0.0
27/12:44pm 14.5 8.9 8.9 69 2.9 NW 28 44 15 24 1020.2 - 0.0
27/12:30pm 14.2 10.9 9.6 74 2.4 NNW 17 22 9 12 1020.5 - 0.0
27/12:00pm 12.8 9.4 9.3 79 1.8 NNW 17 24 9 13 1021.3 1021.6 0.0
27/11:30am 12.8 9.1 9.4 80 1.7 NNW 19 24 10 13 1021.9 - 0.0
27/11:00am 11.7 7.6 8.7 82 1.5 N 20 28 11 15 1022.0 1022.2 0.0
27/10:30am 11.2 7.3 8.6 84 1.3 N 19 26 10 14 1022.1 - 0.0
27/10:00am 10.6 6.7 8.7 88 0.9 N 19 26 10 14 1022.3 1022.5 0.0
27/09:30am 9.1 5.8 8.2 94 0.4 N 15 20 8 11 1022.4 - 0.0
27/09:00am 7.3 4.6 7.2 99 0.0 N 11 15 6 8 1023.0 1023.2 0.0

Other Formats:

Comma delimited format used in spreadsheet applications
http://www.bom.gov.au/fwo/IDV60801/IDV60801.94840.axf

JavaScript Object Notation format (JSON) in row-major order
http://www.bom.gov.au/fwo/IDV60801/IDV60801.94840.json